sensor_id;sensor_type;location;lat;lon;timestamp;temperature;humidity
15452;DHT22;7827;53.594;9.938;2023-02-15T00:00:21;5.10;99.90
15452;DHT22;7827;53.594;9.938;2023-02-15T00:02:50;5.00;99.90
15452;DHT22;7827;53.594;9.938;2023-02-15T00:05:19;5.10;99.90
15452;DHT22;7827;53.594;9.938;2023-02-15T00:07:48;5.00;99.90
15452;DHT22;7827;53.594;9.938;2023-02-15T00:10:16;4.90;99.90
15452;DHT22;7827;53.594;9.938;2023-02-15T00:12:45;4.80;99.90
15452;DHT22;7827;53.594;9.938;2023-02-15T00:15:13;4.80;99.90
15452;DHT22;7827;53.594;9.938;2023-02-15T00:17:41;4.80;99.90
15452;DHT22;7827;53.594;9.938;2023-02-15T00:20:10;4.80;99.90
15452;DHT22;7827;53.594;9.938;2023-02-15T00:22:40;4.80;99.90
15452;DHT22;7827;53.594;9.938;2023-02-15T00:25:08;4.80;99.90
15452;DHT22;7827;53.594;9.938;2023-02-15T00:27:37;4.80;99.90
15452;DHT22;7827;53.594;9.938;2023-02-15T00:30:06;4.80;99.90
15452;DHT22;7827;53.594;9.938;2023-02-15T00:32:35;4.90;99.90
15452;DHT22;7827;53.594;9.938;2023-02-15T00:35:04;4.90;99.90
15452;DHT22;7827;53.594;9.938;2023-02-15T00:37:33;4.90;99.90
15452;DHT22;7827;53.594;9.938;2023-02-15T00:40:05;4.90;99.90
15452;DHT22;7827;53.594;9.938;2023-02-15T00:42:34;4.80;99.90
15452;DHT22;7827;53.594;9.938;2023-02-15T00:45:03;4.80;99.90
15452;DHT22;7827;53.594;9.938;2023-02-15T00:47:32;4.80;99.90
15452;DHT22;7827;53.594;9.938;2023-02-15T00:50:00;4.90;99.90
15452;DHT22;7827;53.594;9.938;2023-02-15T00:52:29;4.90;99.90
15452;DHT22;7827;53.594;9.938;2023-02-15T00:54:58;4.90;99.90
15452;DHT22;7827;53.594;9.938;2023-02-15T00:57:27;5.00;99.90
15452;DHT22;7827;53.594;9.938;2023-02-15T00:59:56;4.90;99.90
15452;DHT22;7827;53.594;9.938;2023-02-15T01:02:24;4.90;99.90
15452;DHT22;7827;53.594;9.938;2023-02-15T01:04:52;4.90;99.90
15452;DHT22;7827;53.594;9.938;2023-02-15T01:07:21;4.90;99.90
15452;DHT22;7827;53.594;9.938;2023-02-15T01:09:50;4.90;99.90
15452;DHT22;7827;53.594;9.938;2023-02-15T01:12:18;4.90;99.90
15452;DHT22;7827;53.594;9.938;2023-02-15T01:14:48;4.90;99.90
15452;DHT22;7827;53.594;9.938;2023-02-15T01:17:16;4.90;99.90
15452;DHT22;7827;53.594;9.938;2023-02-15T01:19:46;4.80;99.90
15452;DHT22;7827;53.594;9.938;2023-02-15T01:22:14;4.90;99.90
15452;DHT22;7827;53.594;9.938;2023-02-15T01:24:42;4.90;99.90
15452;DHT22;7827;53.594;9.938;2023-02-15T01:27:11;4.80;99.90
15452;DHT22;7827;53.594;9.938;2023-02-15T01:29:39;4.90;99.90
15452;DHT22;7827;53.594;9.938;2023-02-15T01:32:09;5.00;99.90
15452;DHT22;7827;53.594;9.938;2023-02-15T01:34:38;4.90;99.90
15452;DHT22;7827;53.594;9.938;2023-02-15T01:37:06;4.90;99.90
15452;DHT22;7827;53.594;9.938;2023-02-15T01:39:35;5.00;99.90
15452;DHT22;7827;53.594;9.938;2023-02-15T01:42:03;4.90;99.90
15452;DHT22;7827;53.594;9.938;2023-02-15T01:44:49;4.80;99.90
15452;DHT22;7827;53.594;9.938;2023-02-15T01:47:23;4.90;99.90
15452;DHT22;7827;53.594;9.938;2023-02-15T01:50:07;4.70;99.90
15452;DHT22;7827;53.594;9.938;2023-02-15T01:52:42;4.80;99.90
15452;DHT22;7827;53.594;9.938;2023-02-15T01:55:14;4.80;99.90
15452;DHT22;7827;53.594;9.938;2023-02-15T01:58:07;4.90;99.90
15452;DHT22;7827;53.594;9.938;2023-02-15T02:00:36;4.90;99.90
15452;DHT22;7827;53.594;9.938;2023-02-15T02:03:30;4.80;99.90
15452;DHT22;7827;53.594;9.938;2023-02-15T02:10:23;4.80;99.90
15452;DHT22;7827;53.594;9.938;2023-02-15T02:13:10;4.80;99.90
15452;DHT22;7827;53.594;9.938;2023-02-15T02:16:00;4.90;99.90
15452;DHT22;7827;53.594;9.938;2023-02-15T02:18:44;4.90;99.90
15452;DHT22;7827;53.594;9.938;2023-02-15T02:21:50;4.90;99.90
15452;DHT22;7827;53.594;9.938;2023-02-15T02:28:16;4.80;99.90
15452;DHT22;7827;53.594;9.938;2023-02-15T02:31:11;4.80;99.90
15452;DHT22;7827;53.594;9.938;2023-02-15T02:37:18;4.90;99.90
15452;DHT22;7827;53.594;9.938;2023-02-15T02:39:56;4.90;99.90
15452;DHT22;7827;53.594;9.938;2023-02-15T02:42:35;4.80;99.90
15452;DHT22;7827;53.594;9.938;2023-02-15T02:45:09;4.80;99.90
15452;DHT22;7827;53.594;9.938;2023-02-15T02:47:44;4.80;99.90
15452;DHT22;7827;53.594;9.938;2023-02-15T02:50:22;4.70;99.90
15452;DHT22;7827;53.594;9.938;2023-02-15T02:52:55;4.70;99.90
15452;DHT22;7827;53.594;9.938;2023-02-15T02:55:29;4.80;99.90
15452;DHT22;7827;53.594;9.938;2023-02-15T02:58:02;4.80;99.90
15452;DHT22;7827;53.594;9.938;2023-02-15T03:00:37;4.70;99.90
15452;DHT22;7827;53.594;9.938;2023-02-15T03:03:10;4.80;99.90
15452;DHT22;7827;53.594;9.938;2023-02-15T03:05:45;4.70;99.90
15452;DHT22;7827;53.594;9.938;2023-02-15T03:08:19;4.70;99.90
15452;DHT22;7827;53.594;9.938;2023-02-15T03:10:53;4.70;99.90
15452;DHT22;7827;53.594;9.938;2023-02-15T03:13:25;4.70;99.90
15452;DHT22;7827;53.594;9.938;2023-02-15T03:15:54;4.70;99.90
15452;DHT22;7827;53.594;9.938;2023-02-15T03:18:44;4.80;99.90
15452;DHT22;7827;53.594;9.938;2023-02-15T03:21:26;4.70;99.90
15452;DHT22;7827;53.594;9.938;2023-02-15T03:24:02;4.70;99.90
15452;DHT22;7827;53.594;9.938;2023-02-15T03:26:34;4.70;99.90
15452;DHT22;7827;53.594;9.938;2023-02-15T03:29:07;4.70;99.90
15452;DHT22;7827;53.594;9.938;2023-02-15T03:31:40;4.70;99.90
15452;DHT22;7827;53.594;9.938;2023-02-15T03:34:12;4.80;99.90
15452;DHT22;7827;53.594;9.938;2023-02-15T03:36:47;4.80;99.90
15452;DHT22;7827;53.594;9.938;2023-02-15T03:39:24;4.80;99.90
15452;DHT22;7827;53.594;9.938;2023-02-15T03:42:04;4.80;99.90
15452;DHT22;7827;53.594;9.938;2023-02-15T03:44:46;4.80;99.90
15452;DHT22;7827;53.594;9.938;2023-02-15T03:47:22;4.80;99.90
15452;DHT22;7827;53.594;9.938;2023-02-15T03:49:55;4.70;99.90
15452;DHT22;7827;53.594;9.938;2023-02-15T03:52:31;4.70;99.90
15452;DHT22;7827;53.594;9.938;2023-02-15T03:55:00;4.70;99.90
15452;DHT22;7827;53.594;9.938;2023-02-15T03:57:29;4.70;99.90
15452;DHT22;7827;53.594;9.938;2023-02-15T04:00:26;4.70;99.90
15452;DHT22;7827;53.594;9.938;2023-02-15T04:03:24;4.70;99.90
15452;DHT22;7827;53.594;9.938;2023-02-15T04:06:01;4.70;99.90
15452;DHT22;7827;53.594;9.938;2023-02-15T04:08:32;4.70;99.90
15452;DHT22;7827;53.594;9.938;2023-02-15T04:11:14;4.80;99.90
15452;DHT22;7827;53.594;9.938;2023-02-15T04:13:42;4.80;99.90
15452;DHT22;7827;53.594;9.938;2023-02-15T04:16:10;4.80;99.90
15452;DHT22;7827;53.594;9.938;2023-02-15T04:18:41;4.70;99.90
15452;DHT22;7827;53.594;9.938;2023-02-15T04:21:29;4.70;99.90
15452;DHT22;7827;53.594;9.938;2023-02-15T04:24:17;4.70;99.90
15452;DHT22;7827;53.594;9.938;2023-02-15T04:27:04;4.70;99.90
15452;DHT22;7827;53.594;9.938;2023-02-15T04:29:33;4.70;99.90
15452;DHT22;7827;53.594;9.938;2023-02-15T04:32:01;4.70;99.90
15452;DHT22;7827;53.594;9.938;2023-02-15T04:34:30;4.70;99.90
15452;DHT22;7827;53.594;9.938;2023-02-15T04:36:58;4.70;99.90
15452;DHT22;7827;53.594;9.938;2023-02-15T04:39:28;4.70;99.90
15452;DHT22;7827;53.594;9.938;2023-02-15T04:41:56;4.70;99.90
15452;DHT22;7827;53.594;9.938;2023-02-15T04:44:25;4.70;99.90
15452;DHT22;7827;53.594;9.938;2023-02-15T04:46:53;4.60;99.90
15452;DHT22;7827;53.594;9.938;2023-02-15T04:49:21;4.70;99.90
15452;DHT22;7827;53.594;9.938;2023-02-15T04:51:50;4.70;99.90
15452;DHT22;7827;53.594;9.938;2023-02-15T04:54:18;4.60;99.90
15452;DHT22;7827;53.594;9.938;2023-02-15T04:56:47;4.60;99.90
15452;DHT22;7827;53.594;9.938;2023-02-15T04:59:16;4.40;99.90
15452;DHT22;7827;53.594;9.938;2023-02-15T05:01:44;4.40;99.90
15452;DHT22;7827;53.594;9.938;2023-02-15T05:04:12;4.40;99.90
15452;DHT22;7827;53.594;9.938;2023-02-15T05:06:41;4.40;99.90
15452;DHT22;7827;53.594;9.938;2023-02-15T05:09:10;4.50;99.90
15452;DHT22;7827;53.594;9.938;2023-02-15T05:11:39;4.40;99.90
15452;DHT22;7827;53.594;9.938;2023-02-15T05:14:08;4.40;99.90
15452;DHT22;7827;53.594;9.938;2023-02-15T05:16:37;4.40;99.90
15452;DHT22;7827;53.594;9.938;2023-02-15T05:19:06;4.40;99.90
15452;DHT22;7827;53.594;9.938;2023-02-15T05:21:34;4.30;99.90
15452;DHT22;7827;53.594;9.938;2023-02-15T05:24:03;4.40;99.90
15452;DHT22;7827;53.594;9.938;2023-02-15T05:26:52;4.50;99.90
15452;DHT22;7827;53.594;9.938;2023-02-15T05:29:39;4.50;99.90
15452;DHT22;7827;53.594;9.938;2023-02-15T05:32:08;4.40;99.90
15452;DHT22;7827;53.594;9.938;2023-02-15T05:34:37;4.30;99.90
15452;DHT22;7827;53.594;9.938;2023-02-15T05:37:05;4.20;99.90
15452;DHT22;7827;53.594;9.938;2023-02-15T05:39:34;4.30;99.90
15452;DHT22;7827;53.594;9.938;2023-02-15T05:42:03;4.30;99.90
15452;DHT22;7827;53.594;9.938;2023-02-15T05:44:31;4.30;99.90
15452;DHT22;7827;53.594;9.938;2023-02-15T05:47:01;4.30;99.90
15452;DHT22;7827;53.594;9.938;2023-02-15T05:49:30;4.30;99.90
15452;DHT22;7827;53.594;9.938;2023-02-15T05:51:58;4.20;99.90
15452;DHT22;7827;53.594;9.938;2023-02-15T05:54:26;4.30;99.90
15452;DHT22;7827;53.594;9.938;2023-02-15T05:56:55;4.10;99.90
15452;DHT22;7827;53.594;9.938;2023-02-15T05:59:24;4.00;99.90
15452;DHT22;7827;53.594;9.938;2023-02-15T06:01:52;4.00;99.90
15452;DHT22;7827;53.594;9.938;2023-02-15T06:04:21;4.10;99.90
15452;DHT22;7827;53.594;9.938;2023-02-15T06:06:50;4.10;99.90
15452;DHT22;7827;53.594;9.938;2023-02-15T06:09:18;4.10;99.90
15452;DHT22;7827;53.594;9.938;2023-02-15T06:11:46;4.10;99.90
15452;DHT22;7827;53.594;9.938;2023-02-15T06:14:15;4.10;99.90
15452;DHT22;7827;53.594;9.938;2023-02-15T06:16:43;4.10;99.90
15452;DHT22;7827;53.594;9.938;2023-02-15T06:19:12;4.20;99.90
15452;DHT22;7827;53.594;9.938;2023-02-15T06:21:41;4.30;99.90
15452;DHT22;7827;53.594;9.938;2023-02-15T06:24:11;4.30;99.90
15452;DHT22;7827;53.594;9.938;2023-02-15T06:26:39;4.40;99.90
15452;DHT22;7827;53.594;9.938;2023-02-15T06:29:08;4.40;99.90
15452;DHT22;7827;53.594;9.938;2023-02-15T06:31:36;4.40;99.90
15452;DHT22;7827;53.594;9.938;2023-02-15T06:34:04;4.40;99.90
15452;DHT22;7827;53.594;9.938;2023-02-15T06:36:33;4.40;99.90
15452;DHT22;7827;53.594;9.938;2023-02-15T06:39:03;4.30;99.90
15452;DHT22;7827;53.594;9.938;2023-02-15T06:41:32;4.30;99.90
15452;DHT22;7827;53.594;9.938;2023-02-15T06:44:00;4.30;99.90
15452;DHT22;7827;53.594;9.938;2023-02-15T06:46:28;4.30;99.90
15452;DHT22;7827;53.594;9.938;2023-02-15T06:48:57;4.30;99.90
15452;DHT22;7827;53.594;9.938;2023-02-15T06:51:25;4.20;99.90
15452;DHT22;7827;53.594;9.938;2023-02-15T06:53:54;4.10;99.90
15452;DHT22;7827;53.594;9.938;2023-02-15T06:56:23;4.10;99.90
15452;DHT22;7827;53.594;9.938;2023-02-15T06:58:52;4.20;99.90
15452;DHT22;7827;53.594;9.938;2023-02-15T07:01:20;4.20;99.90
15452;DHT22;7827;53.594;9.938;2023-02-15T07:03:48;4.10;99.90
15452;DHT22;7827;53.594;9.938;2023-02-15T07:06:17;4.00;99.90
15452;DHT22;7827;53.594;9.938;2023-02-15T07:08:45;4.10;99.90
15452;DHT22;7827;53.594;9.938;2023-02-15T07:11:13;4.10;99.90
15452;DHT22;7827;53.594;9.938;2023-02-15T07:14:00;4.20;99.90
15452;DHT22;7827;53.594;9.938;2023-02-15T07:16:29;4.10;99.90
15452;DHT22;7827;53.594;9.938;2023-02-15T07:18:57;4.10;99.90
15452;DHT22;7827;53.594;9.938;2023-02-15T07:21:25;4.10;99.90
15452;DHT22;7827;53.594;9.938;2023-02-15T07:23:56;4.10;99.90
15452;DHT22;7827;53.594;9.938;2023-02-15T07:26:25;4.10;99.90
15452;DHT22;7827;53.594;9.938;2023-02-15T07:28:53;3.90;99.90
15452;DHT22;7827;53.594;9.938;2023-02-15T07:31:23;3.90;99.90
15452;DHT22;7827;53.594;9.938;2023-02-15T07:33:51;3.90;99.90
15452;DHT22;7827;53.594;9.938;2023-02-15T07:36:20;3.90;99.90
15452;DHT22;7827;53.594;9.938;2023-02-15T07:38:48;4.00;99.90
15452;DHT22;7827;53.594;9.938;2023-02-15T07:41:16;4.10;99.90
15452;DHT22;7827;53.594;9.938;2023-02-15T07:43:45;4.10;99.90
15452;DHT22;7827;53.594;9.938;2023-02-15T07:46:15;4.10;99.90
15452;DHT22;7827;53.594;9.938;2023-02-15T07:48:46;4.10;99.90
15452;DHT22;7827;53.594;9.938;2023-02-15T07:51:14;4.10;99.90
15452;DHT22;7827;53.594;9.938;2023-02-15T07:53:43;4.10;99.90
15452;DHT22;7827;53.594;9.938;2023-02-15T07:56:13;4.00;99.90
15452;DHT22;7827;53.594;9.938;2023-02-15T07:58:42;4.00;99.90
15452;DHT22;7827;53.594;9.938;2023-02-15T08:01:23;3.90;99.90
15452;DHT22;7827;53.594;9.938;2023-02-15T08:03:54;3.90;99.90
15452;DHT22;7827;53.594;9.938;2023-02-15T08:06:29;3.90;99.90
15452;DHT22;7827;53.594;9.938;2023-02-15T08:08:59;3.90;99.90
15452;DHT22;7827;53.594;9.938;2023-02-15T08:11:30;4.00;99.90
15452;DHT22;7827;53.594;9.938;2023-02-15T08:14:05;3.90;99.90
15452;DHT22;7827;53.594;9.938;2023-02-15T08:16:36;3.90;99.90
15452;DHT22;7827;53.594;9.938;2023-02-15T08:19:08;3.90;99.90
15452;DHT22;7827;53.594;9.938;2023-02-15T08:21:39;3.90;99.90
15452;DHT22;7827;53.594;9.938;2023-02-15T08:24:09;4.00;99.90
15452;DHT22;7827;53.594;9.938;2023-02-15T08:26:39;4.00;99.90
15452;DHT22;7827;53.594;9.938;2023-02-15T08:29:08;4.00;99.90
15452;DHT22;7827;53.594;9.938;2023-02-15T08:31:37;4.00;99.90
15452;DHT22;7827;53.594;9.938;2023-02-15T08:34:09;4.00;99.90
15452;DHT22;7827;53.594;9.938;2023-02-15T08:36:39;4.00;99.90
15452;DHT22;7827;53.594;9.938;2023-02-15T08:39:08;4.00;99.90
15452;DHT22;7827;53.594;9.938;2023-02-15T08:41:37;3.90;99.90
15452;DHT22;7827;53.594;9.938;2023-02-15T08:44:08;4.00;99.90
15452;DHT22;7827;53.594;9.938;2023-02-15T08:46:39;4.10;99.90
15452;DHT22;7827;53.594;9.938;2023-02-15T08:49:13;4.00;99.90
15452;DHT22;7827;53.594;9.938;2023-02-15T08:51:43;4.10;99.90
15452;DHT22;7827;53.594;9.938;2023-02-15T08:54:13;4.10;99.90
15452;DHT22;7827;53.594;9.938;2023-02-15T08:56:44;4.00;99.90
15452;DHT22;7827;53.594;9.938;2023-02-15T08:59:15;3.90;99.90
15452;DHT22;7827;53.594;9.938;2023-02-15T09:01:45;4.00;99.90
15452;DHT22;7827;53.594;9.938;2023-02-15T09:04:17;4.00;99.90
15452;DHT22;7827;53.594;9.938;2023-02-15T09:06:47;3.90;99.90
15452;DHT22;7827;53.594;9.938;2023-02-15T09:09:16;4.00;99.90
15452;DHT22;7827;53.594;9.938;2023-02-15T09:11:47;3.90;99.90
15452;DHT22;7827;53.594;9.938;2023-02-15T09:14:24;3.90;99.90
15452;DHT22;7827;53.594;9.938;2023-02-15T09:16:54;3.90;99.90
15452;DHT22;7827;53.594;9.938;2023-02-15T09:19:24;3.90;99.90
15452;DHT22;7827;53.594;9.938;2023-02-15T09:21:53;4.10;99.90
15452;DHT22;7827;53.594;9.938;2023-02-15T09:24:22;4.20;99.90
15452;DHT22;7827;53.594;9.938;2023-02-15T09:26:50;4.30;99.90
15452;DHT22;7827;53.594;9.938;2023-02-15T09:29:19;4.40;99.90
15452;DHT22;7827;53.594;9.938;2023-02-15T09:31:50;4.40;99.90
15452;DHT22;7827;53.594;9.938;2023-02-15T09:34:22;4.50;99.90
15452;DHT22;7827;53.594;9.938;2023-02-15T09:36:51;4.50;99.90
15452;DHT22;7827;53.594;9.938;2023-02-15T09:39:22;4.60;99.90
15452;DHT22;7827;53.594;9.938;2023-02-15T09:45:26;4.70;99.90
15452;DHT22;7827;53.594;9.938;2023-02-15T09:48:24;4.70;99.90
15452;DHT22;7827;53.594;9.938;2023-02-15T09:51:17;4.90;99.90
15452;DHT22;7827;53.594;9.938;2023-02-15T09:54:13;4.90;99.90
15452;DHT22;7827;53.594;9.938;2023-02-15T09:56:58;4.90;99.90
15452;DHT22;7827;53.594;9.938;2023-02-15T09:59:38;4.70;99.90
15452;DHT22;7827;53.594;9.938;2023-02-15T10:02:24;4.60;99.90
15452;DHT22;7827;53.594;9.938;2023-02-15T10:05:12;4.60;99.90
15452;DHT22;7827;53.594;9.938;2023-02-15T10:08:16;4.70;99.90
15452;DHT22;7827;53.594;9.938;2023-02-15T10:11:00;4.70;99.90
15452;DHT22;7827;53.594;9.938;2023-02-15T10:13:57;4.70;99.90
15452;DHT22;7827;53.594;9.938;2023-02-15T10:16:45;4.60;99.90
15452;DHT22;7827;53.594;9.938;2023-02-15T10:19:28;4.70;99.90
15452;DHT22;7827;53.594;9.938;2023-02-15T10:22:14;4.80;99.90
15452;DHT22;7827;53.594;9.938;2023-02-15T10:25:13;4.70;99.90
15452;DHT22;7827;53.594;9.938;2023-02-15T10:27:50;4.70;99.90
15452;DHT22;7827;53.594;9.938;2023-02-15T10:30:21;4.60;99.90
15452;DHT22;7827;53.594;9.938;2023-02-15T10:33:00;4.60;99.90
15452;DHT22;7827;53.594;9.938;2023-02-15T10:35:36;4.60;99.90
15452;DHT22;7827;53.594;9.938;2023-02-15T10:38:24;4.70;99.90
15452;DHT22;7827;53.594;9.938;2023-02-15T10:41:09;4.70;99.90
15452;DHT22;7827;53.594;9.938;2023-02-15T10:44:09;4.70;99.90
15452;DHT22;7827;53.594;9.938;2023-02-15T10:47:10;4.70;99.90
15452;DHT22;7827;53.594;9.938;2023-02-15T10:50:11;4.80;99.90
15452;DHT22;7827;53.594;9.938;2023-02-15T10:53:03;4.90;99.90
15452;DHT22;7827;53.594;9.938;2023-02-15T10:55:50;4.90;99.90
15452;DHT22;7827;53.594;9.938;2023-02-15T10:58:33;5.00;99.90
15452;DHT22;7827;53.594;9.938;2023-02-15T11:01:13;5.00;99.90
15452;DHT22;7827;53.594;9.938;2023-02-15T11:04:07;5.10;99.90
15452;DHT22;7827;53.594;9.938;2023-02-15T11:06:54;5.10;99.90
15452;DHT22;7827;53.594;9.938;2023-02-15T11:09:36;5.10;99.90
15452;DHT22;7827;53.594;9.938;2023-02-15T11:12:11;5.30;99.90
15452;DHT22;7827;53.594;9.938;2023-02-15T11:14:49;5.40;99.90
15452;DHT22;7827;53.594;9.938;2023-02-15T11:17:24;5.50;99.90
15452;DHT22;7827;53.594;9.938;2023-02-15T11:20:08;5.80;99.90
15452;DHT22;7827;53.594;9.938;2023-02-15T11:22:48;6.00;99.90
15452;DHT22;7827;53.594;9.938;2023-02-15T11:25:23;6.10;99.90
15452;DHT22;7827;53.594;9.938;2023-02-15T11:27:54;6.20;99.90
15452;DHT22;7827;53.594;9.938;2023-02-15T11:30:28;6.20;99.90
15452;DHT22;7827;53.594;9.938;2023-02-15T11:33:15;6.10;99.90
15452;DHT22;7827;53.594;9.938;2023-02-15T11:35:51;6.10;99.90
15452;DHT22;7827;53.594;9.938;2023-02-15T11:38:26;6.10;99.90
15452;DHT22;7827;53.594;9.938;2023-02-15T11:41:00;6.20;99.90
15452;DHT22;7827;53.594;9.938;2023-02-15T11:43:36;6.30;99.90
15452;DHT22;7827;53.594;9.938;2023-02-15T11:46:11;6.50;99.90
15452;DHT22;7827;53.594;9.938;2023-02-15T11:48:41;6.40;99.90
15452;DHT22;7827;53.594;9.938;2023-02-15T11:51:13;6.50;99.90
15452;DHT22;7827;53.594;9.938;2023-02-15T11:53:45;6.50;99.90
15452;DHT22;7827;53.594;9.938;2023-02-15T11:56:15;6.60;99.90
15452;DHT22;7827;53.594;9.938;2023-02-15T11:58:47;6.70;99.90
15452;DHT22;7827;53.594;9.938;2023-02-15T12:01:24;6.80;99.90
15452;DHT22;7827;53.594;9.938;2023-02-15T12:04:01;6.90;99.90
15452;DHT22;7827;53.594;9.938;2023-02-15T12:06:37;6.90;99.90
15452;DHT22;7827;53.594;9.938;2023-02-15T12:09:18;7.10;99.90
15452;DHT22;7827;53.594;9.938;2023-02-15T12:11:53;7.20;99.90
15452;DHT22;7827;53.594;9.938;2023-02-15T12:14:21;7.20;99.90
15452;DHT22;7827;53.594;9.938;2023-02-15T12:16:54;7.20;99.90
15452;DHT22;7827;53.594;9.938;2023-02-15T12:19:31;7.20;99.90
15452;DHT22;7827;53.594;9.938;2023-02-15T12:22:05;7.30;99.90
15452;DHT22;7827;53.594;9.938;2023-02-15T12:24:47;7.30;99.90
15452;DHT22;7827;53.594;9.938;2023-02-15T12:27:18;7.30;99.90
15452;DHT22;7827;53.594;9.938;2023-02-15T12:29:51;7.40;99.90
15452;DHT22;7827;53.594;9.938;2023-02-15T12:32:24;7.40;99.90
15452;DHT22;7827;53.594;9.938;2023-02-15T12:35:00;7.50;99.90
15452;DHT22;7827;53.594;9.938;2023-02-15T12:37:35;7.50;99.90
15452;DHT22;7827;53.594;9.938;2023-02-15T12:40:21;7.60;99.90
15452;DHT22;7827;53.594;9.938;2023-02-15T12:42:50;7.70;99.90
15452;DHT22;7827;53.594;9.938;2023-02-15T12:45:22;7.70;99.90
15452;DHT22;7827;53.594;9.938;2023-02-15T12:48:16;7.70;99.90
15452;DHT22;7827;53.594;9.938;2023-02-15T12:50:46;7.70;99.90
15452;DHT22;7827;53.594;9.938;2023-02-15T12:53:31;7.80;99.90
15452;DHT22;7827;53.594;9.938;2023-02-15T12:56:02;7.90;99.90
15452;DHT22;7827;53.594;9.938;2023-02-15T12:58:32;7.90;99.90
15452;DHT22;7827;53.594;9.938;2023-02-15T13:01:09;8.00;99.90
15452;DHT22;7827;53.594;9.938;2023-02-15T13:03:55;8.00;99.90
15452;DHT22;7827;53.594;9.938;2023-02-15T13:06:26;8.10;99.90
15452;DHT22;7827;53.594;9.938;2023-02-15T13:11:34;8.30;99.90
15452;DHT22;7827;53.594;9.938;2023-02-15T13:14:17;8.30;99.90
15452;DHT22;7827;53.594;9.938;2023-02-15T13:16:49;8.40;99.90
15452;DHT22;7827;53.594;9.938;2023-02-15T13:19:28;8.30;99.90
15452;DHT22;7827;53.594;9.938;2023-02-15T13:22:05;8.40;99.90
15452;DHT22;7827;53.594;9.938;2023-02-15T13:24:40;8.40;99.90
15452;DHT22;7827;53.594;9.938;2023-02-15T13:27:15;8.50;99.90
15452;DHT22;7827;53.594;9.938;2023-02-15T13:29:49;8.60;99.90
15452;DHT22;7827;53.594;9.938;2023-02-15T13:32:27;8.60;99.90
15452;DHT22;7827;53.594;9.938;2023-02-15T13:35:00;8.60;99.90
15452;DHT22;7827;53.594;9.938;2023-02-15T13:38:01;8.60;99.90
15452;DHT22;7827;53.594;9.938;2023-02-15T13:40:40;8.70;99.90
15452;DHT22;7827;53.594;9.938;2023-02-15T13:43:24;8.70;99.90
15452;DHT22;7827;53.594;9.938;2023-02-15T13:46:19;8.70;99.90
15452;DHT22;7827;53.594;9.938;2023-02-15T13:49:05;8.70;99.90
15452;DHT22;7827;53.594;9.938;2023-02-15T13:51:52;8.70;99.90
15452;DHT22;7827;53.594;9.938;2023-02-15T13:54:51;8.70;99.90
15452;DHT22;7827;53.594;9.938;2023-02-15T13:57:48;8.70;99.90
15452;DHT22;7827;53.594;9.938;2023-02-15T14:00:29;8.70;99.90
15452;DHT22;7827;53.594;9.938;2023-02-15T14:03:21;8.70;99.90
15452;DHT22;7827;53.594;9.938;2023-02-15T14:06:17;8.80;99.90
15452;DHT22;7827;53.594;9.938;2023-02-15T14:09:11;8.80;99.90
15452;DHT22;7827;53.594;9.938;2023-02-15T14:11:54;8.80;99.90
15452;DHT22;7827;53.594;9.938;2023-02-15T14:14:59;8.80;99.90
15452;DHT22;7827;53.594;9.938;2023-02-15T14:17:50;8.90;99.90
15452;DHT22;7827;53.594;9.938;2023-02-15T14:20:28;8.90;99.90
15452;DHT22;7827;53.594;9.938;2023-02-15T14:23:07;8.80;99.90
15452;DHT22;7827;53.594;9.938;2023-02-15T14:25:48;8.80;99.90
15452;DHT22;7827;53.594;9.938;2023-02-15T14:28:27;8.90;99.90
15452;DHT22;7827;53.594;9.938;2023-02-15T14:30:59;8.90;99.90
15452;DHT22;7827;53.594;9.938;2023-02-15T14:33:31;8.90;99.90
15452;DHT22;7827;53.594;9.938;2023-02-15T14:36:05;8.90;99.90
15452;DHT22;7827;53.594;9.938;2023-02-15T14:38:56;8.80;99.90
15452;DHT22;7827;53.594;9.938;2023-02-15T14:41:39;8.90;99.90
15452;DHT22;7827;53.594;9.938;2023-02-15T14:44:15;8.90;99.90
15452;DHT22;7827;53.594;9.938;2023-02-15T14:46:55;8.80;99.90
15452;DHT22;7827;53.594;9.938;2023-02-15T14:49:32;8.80;99.90
15452;DHT22;7827;53.594;9.938;2023-02-15T14:52:04;8.80;99.90
15452;DHT22;7827;53.594;9.938;2023-02-15T14:54:58;8.80;99.90
15452;DHT22;7827;53.594;9.938;2023-02-15T14:57:38;8.70;99.90
15452;DHT22;7827;53.594;9.938;2023-02-15T15:00:33;8.90;99.90
15452;DHT22;7827;53.594;9.938;2023-02-15T15:03:20;8.80;99.90
15452;DHT22;7827;53.594;9.938;2023-02-15T15:05:53;8.80;99.90
15452;DHT22;7827;53.594;9.938;2023-02-15T15:08:32;8.70;99.90
15452;DHT22;7827;53.594;9.938;2023-02-15T15:11:45;8.70;99.90
15452;DHT22;7827;53.594;9.938;2023-02-15T15:14:38;8.70;99.90
15452;DHT22;7827;53.594;9.938;2023-02-15T15:17:11;8.70;99.90
15452;DHT22;7827;53.594;9.938;2023-02-15T15:20:05;8.60;99.90
15452;DHT22;7827;53.594;9.938;2023-02-15T15:22:41;8.60;99.90
15452;DHT22;7827;53.594;9.938;2023-02-15T15:28:10;8.60;99.90
15452;DHT22;7827;53.594;9.938;2023-02-15T15:31:23;8.50;99.90
15452;DHT22;7827;53.594;9.938;2023-02-15T15:40:40;8.40;99.90
15452;DHT22;7827;53.594;9.938;2023-02-15T15:43:38;8.40;99.90
15452;DHT22;7827;53.594;9.938;2023-02-15T15:46:54;8.30;99.90
15452;DHT22;7827;53.594;9.938;2023-02-15T15:49:37;8.30;99.90
15452;DHT22;7827;53.594;9.938;2023-02-15T15:52:14;8.20;99.90
15452;DHT22;7827;53.594;9.938;2023-02-15T15:54:45;8.30;99.90
15452;DHT22;7827;53.594;9.938;2023-02-15T15:57:28;8.30;99.90
15452;DHT22;7827;53.594;9.938;2023-02-15T15:59:58;8.30;99.90
15452;DHT22;7827;53.594;9.938;2023-02-15T16:02:28;8.20;99.90
15452;DHT22;7827;53.594;9.938;2023-02-15T16:05:06;8.20;99.90
15452;DHT22;7827;53.594;9.938;2023-02-15T16:07:36;8.20;99.90
15452;DHT22;7827;53.594;9.938;2023-02-15T16:10:21;8.10;99.90
15452;DHT22;7827;53.594;9.938;2023-02-15T16:12:51;8.10;99.90
15452;DHT22;7827;53.594;9.938;2023-02-15T16:15:23;8.00;99.90
15452;DHT22;7827;53.594;9.938;2023-02-15T16:17:56;7.90;99.90
15452;DHT22;7827;53.594;9.938;2023-02-15T16:20:29;7.90;99.90
15452;DHT22;7827;53.594;9.938;2023-02-15T16:23:16;7.90;99.90
15452;DHT22;7827;53.594;9.938;2023-02-15T16:26:04;7.90;99.90
15452;DHT22;7827;53.594;9.938;2023-02-15T16:28:40;7.80;99.90
15452;DHT22;7827;53.594;9.938;2023-02-15T16:31:16;7.80;99.90
15452;DHT22;7827;53.594;9.938;2023-02-15T16:33:46;7.80;99.90
15452;DHT22;7827;53.594;9.938;2023-02-15T16:36:20;7.60;99.90
15452;DHT22;7827;53.594;9.938;2023-02-15T16:39:07;7.60;99.90
15452;DHT22;7827;53.594;9.938;2023-02-15T16:41:38;7.50;99.90
15452;DHT22;7827;53.594;9.938;2023-02-15T16:44:14;7.50;99.90
15452;DHT22;7827;53.594;9.938;2023-02-15T16:46:47;7.50;99.90
15452;DHT22;7827;53.594;9.938;2023-02-15T16:49:20;7.50;99.90
15452;DHT22;7827;53.594;9.938;2023-02-15T16:51:55;7.40;99.90
15452;DHT22;7827;53.594;9.938;2023-02-15T16:54:28;7.40;99.90
15452;DHT22;7827;53.594;9.938;2023-02-15T16:56:58;7.30;99.90
15452;DHT22;7827;53.594;9.938;2023-02-15T16:59:33;7.30;99.90
15452;DHT22;7827;53.594;9.938;2023-02-15T17:02:05;7.30;99.90
15452;DHT22;7827;53.594;9.938;2023-02-15T17:05:12;7.20;99.90
15452;DHT22;7827;53.594;9.938;2023-02-15T17:08:06;7.20;99.90
15452;DHT22;7827;53.594;9.938;2023-02-15T17:10:43;7.10;99.90
15452;DHT22;7827;53.594;9.938;2023-02-15T17:13:14;7.00;99.90
15452;DHT22;7827;53.594;9.938;2023-02-15T17:15:46;6.90;99.90
15452;DHT22;7827;53.594;9.938;2023-02-15T17:18:45;6.90;99.90
15452;DHT22;7827;53.594;9.938;2023-02-15T17:21:18;6.90;99.90
15452;DHT22;7827;53.594;9.938;2023-02-15T17:23:50;6.80;99.90